EGCC Airport Information

Runway Information
Runway 05L Length 10000 ft width 150 ft
Elevation 212 ft Threshold 1401 ft Heading 51
Runway 23R Length 10000 ft Width 150 ft
Elevation 249 ft Threshold 600 ft Heading 231
Runway 05R Length 9997 ft width 150 ft
Elevation 186 ft Threshold 604 ft Heading 51
Runway 23L Length 9997 ft Width 150 ft
Elevation 227 ft Threshold 604 ft Heading 231
Airport Frequencies
Type APP Name APP Frequency 135 MHZ
Type ATIS Name ATIS Frequency 128.175 MHZ
Type CLD Name CLNC DEL Frequency 121.7 MHZ
Type GND Name GND Frequency 121.85 MHZ
Type TWR Name TWR Frequency 118.625 MHZ
Airport Navaids
Type NDB Name Manchester Frequency 428 KHZ
Type VOR-DME Name Manchester Frequency 113550 KHZ
Airport Weather Information & NOTAM
ADDS - METARS form results

(2154 UTC 01 December 2021)
Data provider http://aviationweather.gov/metar/data/
 
METAR text: EGCC 012150Z AUTO 28005KT 9999 NCD 02/M02 Q1009 NOSIG
Conditions at: EGCC (MANCHESTER INTL , GB) observed 2150 UTC 01 December 2021
Temperature: 2.0°C (36°F)
Dewpoint: -2.0°C (28°F) [RH = 75%]
Pressure (altimeter): 29.79 inches Hg (1009.0 mb)
Winds: from the W (280 degrees) at 6 MPH (5 knots; 2.6 m/s)
Visibility: 6 or more miles (10+ km)
Ceiling: at least 12,000 feet AGL
Clouds: sky clear below 12,000 feet AGL
Weather: no significant weather observed at this time

METAR text: EGCC 012120Z AUTO 31007KT 9999 NCD 02/M02 Q1008
Conditions at: EGCC (MANCHESTER INTL , GB) observed 2120 UTC 01 December 2021
Temperature: 2.0°C (36°F)
Dewpoint: -2.0°C (28°F) [RH = 75%]
Pressure (altimeter): 29.76 inches Hg (1008.0 mb)
Winds: from the NW (310 degrees) at 8 MPH (7 knots; 3.6 m/s)
Visibility: 6 or more miles (10+ km)
Ceiling: at least 12,000 feet AGL
Clouds: sky clear below 12,000 feet AGL
Weather: no significant weather observed at this time

Forecast for: EGCC (MANCHESTER INTL , GB)
Text: TAF EGCC 011658Z 0118/0224 33009KT 9999 SCT018
Forecast period: 1800 UTC 01 December 2021 to 0000 UTC 03 December 2021
Forecast type: FROM: standard forecast or significant change
Winds: from the NNW (330 degrees) at 10 MPH (9 knots; 4.6 m/s)
Visibility: 6 or more miles (10+ km)
Ceiling: at least 12,000 feet AGL
Clouds: scattered clouds at 1800 feet AGL
Weather: no significant weather forecast for this period
Text: TEMPO 0222/0224 6000 RA BKN009
Forecast period: 2200 UTC 02 December 2021 to 0000 UTC 03 December 2021
Forecast type: TEMPORARY: The following changes expected for less than half the time period
Visibility: 4 miles (6 km)
Ceiling: 900 feet AGL
Clouds: broken clouds at 900 feet AGL
Weather: RA  (moderate rain)